Time;durP1;ratioP1;P1;durP2;ratioP2;P2;SDS_P1;SDS_P2;PMS_P1;PMS_P2;Temp;Humidity;BMP_temperature;BMP_pressure;BME280_temperature;BME280_humidity;BME280_pressure;Samples;Min_cycle;Max_cycle;Signal;HPM_P1;HPM_P2
2022/05/14 00:00:15;;;;;;;31.50;12.73;;;;;;;14.26;81.18;96713.25;5087862;28;20131;-80
2022/05/14 00:02:43;;;;;;;27.33;12.65;;;;;;;14.25;80.88;96719.88;5088461;28;20048;-79
2022/05/14 00:05:10;;;;;;;17.75;9.88;;;;;;;14.23;81.20;96716.66;5087982;28;20078;-78
2022/05/14 00:07:37;;;;;;;22.80;11.38;;;;;;;14.21;81.29;96718.13;5088384;28;20498;-78
2022/05/14 00:10:04;;;;;;;26.50;12.23;;;;;;;14.19;81.39;96718.44;5087550;28;20051;-79
2022/05/14 00:15:15;;;;;;;24.40;11.10;;;;;;;14.16;82.24;96705.44;5087668;28;20066;-78
2022/05/14 00:17:44;;;;;;;24.58;11.35;;;;;;;14.10;82.08;96704.81;5088141;28;20051;-79
2022/05/14 00:20:12;;;;;;;30.20;12.77;;;;;;;14.03;82.02;96706.47;5087337;28;20096;-78
2022/05/14 00:22:39;;;;;;;29.30;12.32;;;;;;;14.02;81.83;96704.88;5088199;28;20495;-79
2022/05/14 00:25:07;;;;;;;29.33;13.57;;;;;;;14.01;81.68;96708.75;5087394;28;20051;-78
2022/05/14 00:27:34;;;;;;;22.13;9.85;;;;;;;14.03;81.84;96710.00;5071602;28;20146;-78
2022/05/14 00:30:01;;;;;;;25.13;10.63;;;;;;;14.04;81.86;96708.91;5067330;28;20131;-79
2022/05/14 00:32:27;;;;;;;26.20;11.25;;;;;;;14.04;81.91;96708.91;5067235;28;20416;-78
2022/05/14 00:34:55;;;;;;;24.92;10.82;;;;;;;14.03;81.93;96711.94;5067803;28;20048;-79
2022/05/14 00:37:22;;;;;;;26.95;12.43;;;;;;;14.03;82.34;96711.94;5070075;28;20059;-79
2022/05/14 00:39:48;;;;;;;18.77;9.43;;;;;;;14.05;83.03;96710.50;5087482;28;20044;-79
2022/05/14 00:42:15;;;;;;;20.38;10.00;;;;;;;14.05;82.96;96704.22;5085838;28;20052;-79
2022/05/14 00:44:41;;;;;;;23.08;10.68;;;;;;;14.09;83.23;96705.13;5073638;28;20048;-78
2022/05/14 00:47:14;;;;;;;22.17;10.57;;;;;;;14.10;82.00;96702.09;5086911;28;20051;-79
2022/05/14 00:49:41;;;;;;;25.23;12.00;;;;;;;14.09;81.69;96707.88;5086889;28;20137;-80
2022/05/14 00:52:13;;;;;;;23.00;10.88;;;;;;;14.05;81.65;96704.22;5087140;28;20055;-79
2022/05/14 00:54:44;;;;;;;24.05;11.00;;;;;;;14.03;82.03;96701.00;5087273;28;20453;-78
2022/05/14 00:57:14;;;;;;;28.40;12.23;;;;;;;14.02;82.08;96699.38;5086841;28;20391;-78
2022/05/14 00:59:41;;;;;;;32.67;14.65;;;;;;;14.02;81.51;96691.19;5087497;28;20075;-80
2022/05/14 01:02:08;;;;;;;26.15;11.48;;;;;;;13.99;80.96;96700.03;5087027;28;20048;-79
2022/05/14 01:04:35;;;;;;;22.73;11.18;;;;;;;13.94;81.41;96698.31;5087449;28;20048;-79
2022/05/14 01:07:05;;;;;;;22.92;10.25;;;;;;;13.90;81.33;96693.84;5086969;28;20054;-79
2022/05/14 01:09:35;;;;;;;20.10;10.43;;;;;;;13.87;81.40;96691.75;5087288;28;20051;-78
2022/05/14 01:12:03;;;;;;;31.70;12.98;;;;;;;13.87;80.46;96694.50;5085840;28;20498;-78
2022/05/14 01:14:30;;;;;;;20.05;9.35;;;;;;;13.87;80.14;96691.75;5087004;28;20048;-78
2022/05/14 01:16:56;;;;;;;25.17;11.30;;;;;;;13.83;79.87;96692.44;5087009;28;20055;-77
2022/05/14 01:19:23;;;;;;;23.35;11.20;;;;;;;13.77;80.15;96693.72;5086443;28;20044;-78
2022/05/14 01:22:04;;;;;;;27.05;11.68;;;;;;;13.75;80.79;96693.25;5086470;28;20055;-78
2022/05/14 01:27:24;;;;;;;15.95;7.97;;;;;;;13.68;81.63;96695.72;5086212;28;20051;-78
2022/05/14 01:29:50;;;;;;;23.70;11.05;;;;;;;13.67;82.12;96694.09;5086454;28;20054;-79
2022/05/14 01:32:17;;;;;;;21.48;10.73;;;;;;;13.64;82.23;96692.03;5086278;28;20043;-79
2022/05/14 01:34:44;;;;;;;21.83;10.43;;;;;;;13.63;82.34;96690.44;5086707;28;20048;-78
2022/05/14 01:37:10;;;;;;;20.52;11.07;;;;;;;13.63;82.65;96689.63;5086192;28;20079;-78
2022/05/14 01:39:38;;;;;;;23.48;11.32;;;;;;;13.58;82.72;96685.94;5086794;28;20089;-78
2022/05/14 01:42:06;;;;;;;18.42;9.35;;;;;;;13.59;82.68;96689.47;5085655;28;20044;-77
2022/05/14 01:44:34;;;;;;;17.92;9.07;;;;;;;13.60;82.43;96693.81;5086916;28;20051;-79
2022/05/14 01:47:00;;;;;;;20.55;10.38;;;;;;;13.63;81.94;96684.97;5086756;28;20067;-78
2022/05/14 01:49:27;;;;;;;20.35;9.65;;;;;;;13.64;81.30;96689.31;5086500;28;20040;-77
2022/05/14 01:51:55;;;;;;;20.85;10.63;;;;;;;13.63;80.84;96689.63;5086404;28;20048;-79
2022/05/14 01:54:22;;;;;;;21.92;10.05;;;;;;;13.55;81.07;96681.13;5086186;28;20048;-77
2022/05/14 01:56:48;;;;;;;24.80;11.27;;;;;;;13.54;81.11;96685.00;5086252;28;20055;-78
2022/05/14 01:59:15;;;;;;;24.48;11.05;;;;;;;13.55;80.95;96688.53;5085846;28;20052;-77
2022/05/14 02:01:43;;;;;;;19.33;9.85;;;;;;;13.51;80.89;96690.31;5086343;28;20047;-79
2022/05/14 02:04:12;;;;;;;25.38;12.35;;;;;;;13.46;81.39;96691.28;5086072;28;20059;-77
2022/05/14 02:06:39;;;;;;;22.52;11.13;;;;;;;13.37;81.19;96684.28;5086116;28;20052;-78
2022/05/14 02:09:09;;;;;;;24.02;10.90;;;;;;;13.30;81.17;96691.03;5085783;28;20054;-77
2022/05/14 02:11:37;;;;;;;22.48;10.18;;;;;;;13.30;81.36;96684.75;5085657;28;20052;-77
2022/05/14 02:14:04;;;;;;;25.45;11.40;;;;;;;13.20;80.89;96683.16;5085414;28;20048;-77
2022/05/14 02:16:30;;;;;;;21.08;9.93;;;;;;;13.16;80.73;96689.63;5086348;28;20052;-77
2022/05/14 02:18:58;;;;;;;32.55;13.02;;;;;;;13.13;80.94;96691.06;5085910;28;20048;-77
2022/05/14 02:21:26;;;;;;;20.90;10.93;;;;;;;13.06;80.82;96682.56;5085286;28;20051;-77
2022/05/14 02:23:53;;;;;;;24.85;11.00;;;;;;;12.99;80.82;96687.72;5085979;28;20136;-77
2022/05/14 02:26:19;;;;;;;27.83;12.00;;;;;;;12.86;80.98;96681.31;5085571;28;20059;-78
2022/05/14 02:28:46;;;;;;;20.10;9.23;;;;;;;12.81;81.49;96684.22;5085967;28;20052;-77
2022/05/14 02:31:12;;;;;;;23.88;11.00;;;;;;;12.85;81.55;96689.84;5085317;28;20048;-78
2022/05/14 02:33:40;;;;;;;18.45;8.55;;;;;;;12.86;81.78;96683.25;5085842;28;20044;-77
2022/05/14 02:36:10;;;;;;;28.10;12.77;;;;;;;12.89;81.88;96685.31;5085590;28;20055;-78
2022/05/14 02:38:37;;;;;;;17.23;8.68;;;;;;;12.91;82.20;96683.09;5086049;28;20064;-78
2022/05/14 02:41:03;;;;;;;22.17;11.13;;;;;;;12.95;81.71;96678.59;5084356;28;20129;-77
2022/05/14 02:43:30;;;;;;;17.83;8.50;;;;;;;13.00;80.87;96681.16;5085869;28;20051;-77
2022/05/14 02:45:56;;;;;;;18.05;8.98;;;;;;;12.95;81.04;96684.03;5085721;28;20044;-78
2022/05/14 02:48:23;;;;;;;23.13;9.90;;;;;;;12.93;81.25;96687.09;5085278;28;20295;-77
2022/05/14 02:50:49;;;;;;;22.20;9.40;;;;;;;12.92;81.58;96690.94;5085622;28;20047;-77
2022/05/14 02:53:17;;;;;;;21.92;11.23;;;;;;;12.91;81.73;96691.28;5085239;28;20044;-77
2022/05/14 02:55:44;;;;;;;19.10;9.48;;;;;;;12.92;81.91;96695.63;5085597;28;20048;-77
2022/05/14 02:58:10;;;;;;;20.00;10.20;;;;;;;12.94;82.28;96699.63;5084988;28;20852;-78
2022/05/14 03:00:37;;;;;;;26.40;14.60;;;;;;;13.00;82.54;96697.53;5085578;28;20055;-77
2022/05/14 03:03:03;;;;;;;26.52;11.57;;;;;;;12.99;82.70;96691.25;5085228;28;20044;-78
2022/05/14 03:05:30;;;;;;;22.88;9.30;;;;;;;12.98;82.62;96686.91;5085560;28;20733;-78
2022/05/14 03:07:56;;;;;;;17.25;7.93;;;;;;;13.05;82.55;96687.25;5085565;28;20055;-77
2022/05/14 03:10:24;;;;;;;24.13;10.38;;;;;;;13.10;82.08;96680.75;5085045;28;20107;-79
2022/05/14 03:12:51;;;;;;;26.35;12.15;;;;;;;13.07;81.98;96681.44;5087797;28;20048;-78
2022/05/14 03:15:17;;;;;;;22.73;10.48;;;;;;;13.02;82.19;96671.47;5089069;28;20048;-78
2022/05/14 03:17:44;;;;;;;22.67;10.00;;;;;;;13.02;82.18;96673.41;5089543;28;20055;-77
2022/05/14 03:20:13;;;;;;;23.00;11.45;;;;;;;12.98;82.07;96683.38;5087553;28;20044;-77
2022/05/14 03:22:40;;;;;;;20.17;9.57;;;;;;;12.92;81.46;96682.75;5049070;28;20056;-77
2022/05/14 03:25:08;;;;;;;20.50;10.25;;;;;;;12.93;81.49;96697.22;5048640;28;20051;-77
2022/05/14 03:27:36;;;;;;;15.95;8.80;;;;;;;12.84;81.36;96699.97;5048973;28;20044;-77
2022/05/14 03:30:03;;;;;;;26.65;13.70;;;;;;;12.82;81.41;96695.97;5048388;28;20423;-78
2022/05/14 03:32:30;;;;;;;18.40;8.93;;;;;;;12.82;81.80;96694.03;5048863;28;20041;-77
2022/05/14 03:35:00;;;;;;;21.75;10.38;;;;;;;12.84;81.92;96690.97;5048891;28;20051;-77
2022/05/14 03:37:26;;;;;;;25.15;10.68;;;;;;;12.84;82.15;96697.22;5048788;28;20056;-77
2022/05/14 03:39:53;;;;;;;20.75;10.45;;;;;;;12.89;82.71;96697.06;5052899;28;20045;-76
2022/05/14 03:42:19;;;;;;;21.80;10.82;;;;;;;12.93;81.99;96705.41;5067997;28;20123;-76
2022/05/14 03:44:48;;;;;;;23.45;11.70;;;;;;;12.89;82.18;96702.53;5068107;28;20064;-76
2022/05/14 03:47:14;;;;;;;17.25;8.82;;;;;;;12.89;82.05;96708.00;5060953;28;20051;-77
2022/05/14 03:49:42;;;;;;;22.25;11.05;;;;;;;12.88;81.64;96705.59;5068445;28;20048;-77
2022/05/14 03:52:09;;;;;;;21.02;11.60;;;;;;;12.85;81.98;96709.78;5068088;28;20044;-77
2022/05/14 03:54:35;;;;;;;36.15;9.95;;;;;;;12.87;81.74;96714.91;5068512;28;20048;-77
2022/05/14 03:57:02;;;;;;;16.20;9.80;;;;;;;12.86;81.64;96718.78;5068284;28;20055;-77
2022/05/14 03:59:28;;;;;;;21.98;10.18;;;;;;;12.86;81.76;96708.66;5067984;28;20040;-77
2022/05/14 04:01:56;;;;;;;19.33;9.20;;;;;;;12.85;81.70;96707.06;5068642;28;20052;-77
2022/05/14 04:04:22;;;;;;;19.77;9.65;;;;;;;12.92;81.70;96709.28;5068174;28;20053;-77
2022/05/14 04:06:49;;;;;;;21.27;10.43;;;;;;;12.97;81.27;96709.13;5068248;28;20503;-77
2022/05/14 04:09:15;;;;;;;21.98;10.73;;;;;;;13.01;81.37;96712.81;5067198;28;20048;-78
2022/05/14 04:11:42;;;;;;;17.58;8.73;;;;;;;13.00;81.10;96709.28;5067857;28;20053;-77
2022/05/14 04:14:08;;;;;;;15.50;8.30;;;;;;;12.99;81.61;96712.31;5067175;28;20045;-77
2022/05/14 04:16:35;;;;;;;23.33;11.27;;;;;;;12.99;81.77;96712.31;5063416;28;20048;-77
2022/05/14 04:19:02;;;;;;;16.60;8.55;;;;;;;12.98;81.48;96722.44;5067347;28;20052;-76
2022/05/14 04:21:29;;;;;;;17.15;8.38;;;;;;;12.95;81.50;96714.13;5078359;28;20052;-77
2022/05/14 04:23:55;;;;;;;19.60;9.90;;;;;;;12.98;81.69;96718.91;5086176;28;20051;-78
2022/05/14 04:26:24;;;;;;;19.35;9.65;;;;;;;13.00;82.36;96716.69;5087018;28;20056;-77
2022/05/14 04:28:50;;;;;;;21.85;10.50;;;;;;;13.02;82.95;96717.94;5086001;28;20542;-77
2022/05/14 04:31:17;;;;;;;24.30;12.30;;;;;;;13.01;82.97;96716.34;5086655;28;20052;-76
2022/05/14 04:33:44;;;;;;;18.27;8.80;;;;;;;13.00;83.02;96719.41;5088194;28;20106;-78
2022/05/14 04:36:12;;;;;;;19.95;9.70;;;;;;;13.06;82.93;96720.84;5087394;28;20701;-77
2022/05/14 04:38:39;;;;;;;15.07;7.20;;;;;;;13.17;83.02;96721.31;5087212;28;20483;-79
2022/05/14 04:41:05;;;;;;;20.35;10.82;;;;;;;13.23;82.74;96723.56;5086981;28;20044;-79
2022/05/14 04:43:32;;;;;;;19.23;9.90;;;;;;;13.29;82.66;96716.78;5087636;28;20048;-77
2022/05/14 04:45:59;;;;;;;21.63;11.20;;;;;;;13.38;83.26;96724.16;5083524;28;20048;-80
2022/05/14 04:48:25;;;;;;;16.15;9.38;;;;;;;13.30;82.90;96723.06;5085382;28;20040;-78
2022/05/14 04:50:54;;;;;;;18.80;10.48;;;;;;;13.23;83.10;96729.03;5087403;28;20048;-79
2022/05/14 04:53:21;;;;;;;15.30;9.90;;;;;;;13.28;83.26;96730.78;5087126;28;20105;-77
2022/05/14 04:55:50;;;;;;;32.08;13.70;;;;;;;13.39;83.21;96731.25;5086337;28;20433;-78
2022/05/14 04:58:16;;;;;;;19.90;11.48;;;;;;;13.53;82.39;96731.84;5086392;28;20044;-78
2022/05/14 05:00:43;;;;;;;22.60;11.20;;;;;;;13.57;82.53;96738.25;5087206;28;20063;-79
2022/05/14 05:03:18;;;;;;;21.40;10.25;;;;;;;13.58;83.17;96740.66;5086514;28;20044;-77
2022/05/14 05:05:44;;;;;;;21.40;9.98;;;;;;;13.59;83.48;96736.00;5087193;28;20139;-78
2022/05/14 05:08:11;;;;;;;21.50;10.23;;;;;;;13.62;83.63;96740.00;5086555;28;20055;-78
2022/05/14 05:10:39;;;;;;;39.35;35.20;;;;;;;13.67;83.88;96748.03;5087417;28;20098;-78
2022/05/14 05:13:09;;;;;;;20.88;10.77;;;;;;;13.67;84.00;96742.56;5086433;28;20051;-78
2022/05/14 05:15:36;;;;;;;18.65;9.13;;;;;;;13.69;83.83;96735.63;5087046;28;20094;-79
2022/05/14 05:18:02;;;;;;;22.55;11.20;;;;;;;13.66;83.39;96741.75;5085458;28;20717;-79
2022/05/14 05:20:29;;;;;;;15.25;8.23;;;;;;;13.70;83.41;96742.72;5086717;28;20036;-77
2022/05/14 05:22:56;;;;;;;21.27;12.13;;;;;;;13.71;83.61;96738.84;5086631;28;20055;-78
2022/05/14 05:25:22;;;;;;;17.48;9.40;;;;;;;13.74;83.36;96742.88;5086591;28;20048;-77
2022/05/14 05:27:50;;;;;;;19.35;12.25;;;;;;;13.75;83.43;96739.78;5086925;28;20071;-77
2022/05/14 05:30:17;;;;;;;21.65;11.13;;;;;;;13.84;83.47;96742.50;5086359;28;20055;-77
2022/05/14 05:32:43;;;;;;;20.20;10.63;;;;;;;13.91;83.58;96741.97;5086007;28;20040;-76
2022/05/14 05:35:10;;;;;;;21.42;11.35;;;;;;;13.97;83.67;96746.13;5085464;28;20044;-77
2022/05/14 05:37:36;;;;;;;15.25;8.30;;;;;;;14.00;83.64;96750.97;5086494;28;20047;-78
2022/05/14 05:40:04;;;;;;;17.38;9.50;;;;;;;14.05;83.80;96750.78;5085975;28;20071;-77
2022/05/14 05:42:31;;;;;;;17.05;8.90;;;;;;;14.12;83.38;96756.50;5086782;28;20048;-76
2022/05/14 05:44:59;;;;;;;14.52;7.93;;;;;;;14.09;82.89;96749.78;5086630;28;20055;-77
2022/05/14 05:47:26;;;;;;;15.88;8.57;;;;;;;14.13;82.82;96752.63;5081305;28;20131;-77
2022/05/14 05:49:52;;;;;;;21.77;12.35;;;;;;;14.02;81.88;96754.97;5086453;28;20048;-77
2022/05/14 05:52:19;;;;;;;19.65;9.15;;;;;;;13.98;82.44;96753.19;5085478;28;20048;-77
2022/05/14 05:57:31;;;;;;;19.33;10.45;;;;;;;14.02;82.82;96754.16;5086211;28;20592;-77
2022/05/14 05:59:59;;;;;;;22.73;12.40;;;;;;;14.11;82.77;96754.91;5085738;28;20699;-78
2022/05/14 06:02:26;;;;;;;22.60;10.32;;;;;;;14.18;82.41;96746.97;5085795;28;20659;-78
2022/05/14 06:04:52;;;;;;;18.23;8.85;;;;;;;14.28;82.24;96757.53;5086347;28;20047;-79
2022/05/14 06:07:19;;;;;;;21.80;12.90;;;;;;;14.38;82.42;96763.78;5085776;28;20048;-79
2022/05/14 06:09:47;;;;;;;18.17;9.63;;;;;;;14.40;82.00;96758.75;5085984;28;20044;-79
2022/05/14 06:12:14;;;;;;;21.95;10.70;;;;;;;14.46;81.99;96758.25;5085422;28;20048;-79
2022/05/14 06:14:40;;;;;;;127.20;44.70;;;;;;;14.54;82.44;96765.63;5086223;28;20056;-78
2022/05/14 06:17:08;;;;;;;23.27;12.27;;;;;;;14.73;82.86;96759.69;5079819;28;20836;-79
2022/05/14 06:19:35;;;;;;;19.55;10.68;;;;;;;14.88;82.54;96761.03;5085971;28;20047;-77
2022/05/14 06:22:03;;;;;;;20.75;10.55;;;;;;;14.82;80.28;96759.59;5084946;28;20052;-79
2022/05/14 06:24:29;;;;;;;15.38;8.85;;;;;;;14.82;79.62;96765.88;5086166;28;20048;-78
2022/05/14 06:26:56;;;;;;;16.80;10.60;;;;;;;14.88;79.39;96770.03;5085837;28;20044;-77
2022/05/14 06:29:23;;;;;;;20.30;13.07;;;;;;;15.02;79.22;96768.94;5085510;28;20044;-77
2022/05/14 06:31:49;;;;;;;143.97;43.47;;;;;;;15.10;78.98;96776.31;5085715;28;20056;-78
2022/05/14 06:34:17;;;;;;;125.10;36.80;;;;;;;15.17;79.06;96765.59;5085032;28;20055;-78
2022/05/14 06:36:44;;;;;;;17.65;8.93;;;;;;;15.24;78.93;96765.03;5085674;28;20048;-79
2022/05/14 06:39:10;;;;;;;19.70;10.52;;;;;;;15.30;78.29;96769.19;5084995;28;20055;-79
2022/05/14 06:41:38;;;;;;;19.10;9.65;;;;;;;15.41;77.51;96770.34;5085350;28;20052;-78
2022/05/14 06:44:05;;;;;;;17.77;10.30;;;;;;;15.53;76.17;96770.38;5084695;28;20044;-77
2022/05/14 06:46:31;;;;;;;14.50;9.05;;;;;;;15.65;72.56;96775.13;5084532;28;20047;-78
2022/05/14 06:48:58;;;;;;;15.98;9.52;;;;;;;15.71;73.19;96773.75;5085745;28;20056;-79
2022/05/14 06:51:29;;;;;;;19.23;10.00;;;;;;;15.73;69.08;96771.47;5084617;28;20040;-77
2022/05/14 06:54:00;;;;;;;19.50;10.98;;;;;;;15.75;66.45;96773.88;5085491;28;20050;-78
2022/05/14 06:56:28;;;;;;;18.70;16.70;;;;;;;15.83;66.99;96781.22;5085602;28;20052;-77
2022/05/14 06:58:56;;;;;;;67.68;23.08;;;;;;;15.85;67.48;96776.19;5085428;28;20656;-78
2022/05/14 07:01:22;;;;;;;17.05;9.18;;;;;;;15.93;67.59;96774.50;5084636;28;20044;-77
2022/05/14 07:06:41;;;;;;;24.30;13.18;;;;;;;15.93;66.37;96769.00;5085530;28;20055;-77
2022/05/14 07:09:12;;;;;;;22.05;11.70;;;;;;;15.99;66.68;96773.91;5084940;28;20048;-77
2022/05/14 07:11:41;;;;;;;21.05;11.10;;;;;;;16.13;67.31;96776.31;5085314;28;20088;-77
2022/05/14 07:14:10;;;;;;;25.00;12.15;;;;;;;16.19;64.06;96769.44;5084998;28;20585;-77
2022/05/14 07:16:37;;;;;;;18.13;9.60;;;;;;;16.29;60.89;96769.00;5084835;28;20398;-74
2022/05/14 07:19:06;;;;;;;23.85;13.63;;;;;;;16.35;62.17;96769.56;5084684;28;20052;-74
2022/05/14 07:21:33;;;;;;;15.85;8.75;;;;;;;16.43;61.10;96771.38;5085060;28;20740;-73
2022/05/14 07:24:02;;;;;;;17.13;9.10;;;;;;;16.59;61.37;96774.19;5084990;28;20056;-73
2022/05/14 07:26:28;;;;;;;16.85;9.38;;;;;;;16.76;62.68;96774.00;5085239;28;20040;-73
2022/05/14 07:28:55;;;;;;;17.88;9.60;;;;;;;16.99;64.37;96767.94;5085604;28;20040;-74
2022/05/14 07:31:21;;;;;;;20.05;11.45;;;;;;;17.02;59.39;96765.31;5084729;28;20056;-72
2022/05/14 07:33:49;;;;;;;41.85;25.92;;;;;;;17.13;57.60;96762.88;5085242;28;20051;-73
2022/05/14 07:36:21;;;;;;;39.85;15.77;;;;;;;17.33;60.00;96772.88;5084894;28;20044;-73
2022/05/14 07:38:49;;;;;;;26.33;10.77;;;;;;;17.43;58.61;96764.06;5085479;28;20055;-74
2022/05/14 07:41:17;;;;;;;28.90;11.75;;;;;;;17.52;60.29;96771.38;5084617;28;20071;-74
2022/05/14 07:43:47;;;;;;;27.60;11.23;;;;;;;17.64;60.13;96763.03;5085154;28;20048;-75
2022/05/14 07:46:17;;;;;;;50.05;18.55;;;;;;;17.68;58.26;96758.44;5080224;28;20491;-76
2022/05/14 07:48:45;;;;;;;25.92;10.32;;;;;;;17.78;56.94;96763.44;5083961;28;20418;-76
2022/05/14 07:51:12;;;;;;;30.83;11.85;;;;;;;17.81;56.85;96757.25;5084277;28;20059;-76
2022/05/14 07:53:39;;;;;;;22.48;10.77;;;;;;;18.18;56.48;96760.50;5065331;28;20044;-77
2022/05/14 07:56:08;;;;;;;21.52;9.35;;;;;;;18.86;53.16;96758.50;5064264;28;20132;-77
2022/05/14 07:58:37;;;;;;;30.20;13.38;;;;;;;19.44;50.18;96770.34;5066369;28;20048;-76
2022/05/14 08:01:04;;;;;;;25.77;12.15;;;;;;;19.79;46.38;96764.69;5067204;28;20076;-78
2022/05/14 08:03:31;;;;;;;16.52;8.10;;;;;;;20.08;49.91;96765.97;5067775;28;20102;-79
2022/05/14 08:05:58;;;;;;;21.70;10.73;;;;;;;20.24;46.04;96763.06;5068775;28;20048;-80
2022/05/14 08:08:25;;;;;;;19.17;9.93;;;;;;;20.18;46.07;96763.75;5067335;28;20048;-79
2022/05/14 08:10:52;;;;;;;26.85;12.60;;;;;;;20.05;48.28;96771.47;5068054;28;20040;-79
2022/05/14 08:13:20;;;;;;;8.27;3.35;;;;;;;19.84;48.94;96760.00;5066866;28;20052;-78
2022/05/14 08:15:49;;;;;;;6.70;2.22;;;;;;;19.60;47.02;96766.72;5068522;28;20098;-75
2022/05/14 08:18:16;;;;;;;5.82;2.50;;;;;;;19.50;47.66;96762.53;5067508;28;20049;-77
2022/05/14 08:20:44;;;;;;;5.63;2.55;;;;;;;19.47;47.25;96764.09;5067544;28;20510;-76
2022/05/14 08:25:57;;;;;;;9.50;2.15;;;;;;;19.46;45.26;96756.94;5085581;28;20055;-75
2022/05/14 08:28:24;;;;;;;4.85;2.05;;;;;;;19.43;44.78;96762.41;5087588;28;20047;-76
2022/05/14 08:30:54;;;;;;;8.27;2.10;;;;;;;19.50;45.24;96757.81;5089360;28;20055;-80
2022/05/14 08:33:20;;;;;;;11.63;2.60;;;;;;;19.65;47.80;96753.38;5088565;28;20056;-77
2022/05/14 08:35:48;;;;;;;4.85;2.03;;;;;;;19.79;47.32;96758.38;5087871;28;20505;-78
2022/05/14 08:38:17;;;;;;;403.42;93.72;;;;;;;19.90;47.30;96759.34;5087316;28;20055;-77
2022/05/14 08:40:50;;;;;;;30.92;10.98;;;;;;;19.99;48.44;96762.69;5087613;28;20048;-78
2022/05/14 08:43:21;;;;;;;28.05;11.43;;;;;;;20.22;50.80;96761.84;5086854;28;20048;-76
2022/05/14 08:45:48;;;;;;;28.30;10.20;;;;;;;20.40;47.46;96757.38;5087185;28;20052;-76
2022/05/14 08:48:20;;;;;;;27.30;11.27;;;;;;;20.51;47.60;96772.19;5087072;28;20052;-77
2022/05/14 08:50:55;;;;;;;35.05;13.55;;;;;;;20.68;45.88;96759.03;5087531;28;20051;-78
2022/05/14 08:53:25;;;;;;;23.05;10.93;;;;;;;20.81;45.69;96760.38;5086272;28;20110;-77
2022/05/14 08:56:03;;;;;;;26.88;12.27;;;;;;;20.90;50.78;96760.09;5087525;28;20044;-77
2022/05/14 08:58:35;;;;;;;20.60;9.48;;;;;;;20.80;43.36;96754.03;5087152;28;20050;-78
2022/05/14 09:01:05;;;;;;;24.60;11.95;;;;;;;20.79;41.51;96746.91;5086078;28;20048;-79
2022/05/14 09:03:33;;;;;;;23.60;14.38;;;;;;;20.97;48.51;96755.44;5072224;28;20048;-77
2022/05/14 09:06:00;;;;;;;25.95;11.35;;;;;;;21.21;42.37;96754.19;5066779;28;20056;-75
2022/05/14 09:08:27;;;;;;;24.95;11.70;;;;;;;21.47;47.12;96750.53;5066933;28;20731;-75
2022/05/14 09:10:59;;;;;;;58.47;35.05;;;;;;;21.68;45.60;96751.94;5065596;28;20748;-77
2022/05/14 09:13:27;;;;;;;41.65;18.60;;;;;;;21.94;42.74;96751.78;5066033;28;20052;-75
2022/05/14 09:15:56;;;;;;;53.10;20.88;;;;;;;22.06;42.79;96747.94;5067354;28;20056;-76
2022/05/14 09:18:27;;;;;;;41.78;29.60;;;;;;;22.17;43.44;96750.81;5085281;28;20063;-76
2022/05/14 09:20:59;;;;;;;51.25;33.72;;;;;;;22.33;42.16;96748.56;5086511;28;20079;-75
2022/05/14 09:23:30;;;;;;;32.10;7.75;;;;;;;22.50;45.65;96744.31;5086519;28;20680;-77
2022/05/14 09:26:01;;;;;;;23.13;9.65;;;;;;;22.67;43.75;96747.22;5087079;28;20083;-79
2022/05/14 09:28:36;;;;;;;23.75;10.25;;;;;;;22.72;40.68;96746.06;5086781;28;20055;-79
2022/05/14 09:31:04;;;;;;;29.67;15.02;;;;;;;22.75;40.52;96750.03;5086108;28;20052;-77
2022/05/14 09:33:40;;;;;;;25.50;12.85;;;;;;;22.65;37.52;96746.78;5086521;28;20052;-78
2022/05/14 09:36:16;;;;;;;24.40;13.43;;;;;;;22.73;39.17;96747.66;5085393;28;20044;-77
2022/05/14 09:38:43;;;;;;;41.08;18.55;;;;;;;22.79;37.73;96748.88;5085949;28;20052;-79
2022/05/14 09:41:12;;;;;;;24.73;13.20;;;;;;;22.76;35.91;96746.06;5085356;28;20071;-78
2022/05/14 09:43:40;;;;;;;22.77;12.20;;;;;;;22.73;40.83;96746.84;5086176;28;20066;-76
2022/05/14 09:46:10;;;;;;;25.67;13.48;;;;;;;22.69;41.57;96746.03;5084884;28;20051;-77
2022/05/14 09:48:46;;;;;;;18.20;10.18;;;;;;;22.77;40.34;96742.91;5086162;28;20402;-75
2022/05/14 09:51:26;;;;;;;27.40;14.75;;;;;;;22.86;40.83;96734.22;5084545;28;20101;-78
2022/05/14 09:53:53;;;;;;;24.88;14.82;;;;;;;22.96;41.47;96738.28;5085070;28;20048;-77
2022/05/14 09:56:43;;;;;;;17.85;10.40;;;;;;;22.79;36.10;96745.31;5085891;28;20051;-76
2022/05/14 09:59:21;;;;;;;22.33;12.45;;;;;;;22.90;38.48;96746.19;5085650;28;20044;-77
2022/05/14 10:01:55;;;;;;;25.30;13.85;;;;;;;22.92;39.71;96738.28;5086117;28;20052;-75
2022/05/14 10:04:39;;;;;;;22.50;12.48;;;;;;;23.06;39.26;96738.31;5084963;28;20052;-78
2022/05/14 10:07:15;;;;;;;18.52;10.18;;;;;;;23.07;37.75;96742.69;5085371;28;20048;-77
2022/05/14 10:09:53;;;;;;;19.52;10.70;;;;;;;23.04;37.20;96743.47;5085781;28;20056;-77
2022/05/14 10:12:27;;;;;;;23.58;12.45;;;;;;;23.08;36.22;96738.75;5085417;28;20051;-77
2022/05/14 10:15:04;;;;;;;171.80;86.82;;;;;;;22.93;36.89;96728.75;5085388;28;20056;-77
2022/05/14 10:17:43;;;;;;;19.42;10.70;;;;;;;22.77;38.84;96742.13;5084382;28;20772;-76
2022/05/14 10:20:21;;;;;;;20.88;12.32;;;;;;;22.63;37.14;96738.06;5085355;28;20521;-79
2022/05/14 10:28:43;;;;;;;18.70;10.35;;;;;;;22.59;36.99;96725.34;5085384;28;19930;-75
2022/05/14 10:31:16;;;;;;;18.30;10.05;;;;;;;22.71;39.11;96727.00;5084744;28;20056;-79
2022/05/14 10:33:43;;;;;;;21.13;11.57;;;;;;;22.77;37.01;96725.47;5085723;28;20048;-77
2022/05/14 10:36:23;;;;;;;17.05;12.15;;;;;;;22.84;39.47;96714.38;5085026;28;20402;-76
2022/05/14 10:38:58;;;;;;;17.50;10.32;;;;;;;22.81;39.44;96715.16;5085098;28;20715;-75
2022/05/14 10:41:32;;;;;;;16.48;9.77;;;;;;;22.61;37.34;96715.47;5070210;28;20052;-81
2022/05/14 10:46:29;;;;;;;20.58;11.65;;;;;;;22.78;45.96;96705.63;5042645;28;20037;-78
2022/05/14 10:48:59;;;;;;;18.25;11.10;;;;;;;22.92;43.71;96704.94;5045244;28;20688;-77
2022/05/14 10:51:29;;;;;;;20.50;10.95;;;;;;;23.00;42.93;96701.00;5044761;28;20055;-77
2022/05/14 10:53:59;;;;;;;20.05;12.40;;;;;;;22.94;41.48;96696.22;5045438;28;20097;-78
2022/05/14 10:56:28;;;;;;;21.38;12.13;;;;;;;22.99;41.68;96699.41;5044861;28;20057;-78
2022/05/14 10:59:05;;;;;;;19.80;12.27;;;;;;;22.93;45.37;96695.44;5045112;28;20060;-79
2022/05/14 11:01:37;;;;;;;21.45;12.43;;;;;;;23.09;44.80;96687.56;5045356;28;20052;-78
2022/05/14 11:04:16;;;;;;;18.48;10.90;;;;;;;23.32;40.36;96700.31;5045506;28;20056;-77
2022/05/14 11:06:54;;;;;;;22.55;12.48;;;;;;;23.46;40.40;96696.78;5044263;28;20049;-78
2022/05/14 11:09:24;;;;;;;20.48;11.13;;;;;;;23.24;38.70;96693.16;5044865;28;20579;-78
2022/05/14 11:12:00;;;;;;;31.60;18.42;;;;;;;23.33;40.14;96699.13;5047119;28;20064;-77
2022/05/14 11:14:37;;;;;;;24.35;13.50;;;;;;;23.36;38.19;96701.13;5046784;28;20053;-78
2022/05/14 11:17:15;;;;;;;15.57;8.40;;;;;;;23.52;40.33;96693.22;5048241;28;20056;-78
2022/05/14 11:19:42;;;;;;;21.13;13.20;;;;;;;23.58;39.10;96691.63;5052896;28;20075;-76
2022/05/14 11:22:19;;;;;;;29.13;13.00;;;;;;;23.69;42.24;96684.13;5045060;28;20052;-79
2022/05/14 11:24:48;;;;;;;27.90;14.13;;;;;;;23.74;44.34;96684.94;5046887;28;20052;-78
2022/05/14 11:27:26;;;;;;;346.85;90.32;;;;;;;23.94;42.22;96677.78;5046277;28;20460;-77
2022/05/14 11:29:58;;;;;;;41.42;27.25;;;;;;;24.16;38.14;96684.91;5046017;28;21220;-77
2022/05/14 11:32:26;;;;;;;7.53;4.37;;;;;;;24.23;40.83;96684.13;5046699;28;20053;-77
2022/05/14 11:34:55;;;;;;;11.68;6.22;;;;;;;24.05;37.80;96675.78;5051276;28;20057;-77
2022/05/14 11:37:30;;;;;;;13.75;8.60;;;;;;;23.98;38.27;96681.38;5052215;28;20053;-78
2022/05/14 11:40:27;;;;;;;6.72;3.10;;;;;;;23.77;37.83;96675.81;5050984;28;20056;-77
2022/05/14 11:43:09;;;;;;;15.32;6.80;;;;;;;23.88;38.26;96687.72;5051422;28;20045;-77
2022/05/14 11:45:39;;;;;;;100.70;59.75;;;;;;;23.76;36.02;96674.22;5051298;28;20485;-76
2022/05/14 11:48:16;;;;;;;14.90;5.95;;;;;;;23.74;42.61;96671.03;5033002;28;20045;-78